Aviation Digital Data Service (ADDS)

Output produced by METARs form (1740 UTC 03 July 2020)
found at http://aviationweather.gov/metar/data/
 
KRYY 031650Z VRB06KT 10SM CLR 31/21 A3000 RMK AO2 SLP880 T03110206 PNO $
KRYY 031120Z 0312/0412 VRB03KT P6SM BKN120 
     FM031500 14005KT P6SM FEW035 SCT120 
     FM031800 16006KT P6SM VCSH SCT050 SCT120 
     TEMPO 0319/0323 VRB15G25KT 3SM TSRA BKN040CB 
     FM040200 VRB03KT P6SM SCT060 SCT120
       
KPUJ 031735Z AUTO 12004KT CLR 31/18 A3000 RMK AO2 PWINO
KCNI 031710Z AUTO 03005KT 10SM CLR 32/17 A3002 RMK AO2
KPDK 031653Z VRB05KT 10SM CLR 32/19 A2999 RMK AO2 SLP136 T03170194
KPDK 031120Z 0312/0412 VRB03KT P6SM BKN120 
     FM031500 10004KT P6SM FEW035 SCT120 
     FM031800 15005KT P6SM VCSH SCT050 SCT120 
     TEMPO 0319/0323 VRB15G25KT 3SM TSRA BKN040CB 
     FM040200 00000KT P6SM SCT060 SCT120
       
KRMG 031653Z AUTO 02005KT 10SM CLR 32/23 A2998 RMK AO2 SLP140 T03220228
KATL 031652Z 10007KT 10SM FEW040 FEW110 SCT250 32/20 A2999 RMK AO2 SLP144 ACC SE T03170200
KATL 031555Z 0316/0418 09006KT P6SM FEW035 SCT100 
     FM031800 12006KT P6SM VCSH SCT050 SCT120 
     TEMPO 0319/0323 VRB15G25KT 3SM TSRA BKN040CB 
     FM040200 10003KT P6SM SCT060 SCT120 
     FM041500 14005KT P6SM FEW035 SCT100
       
KFFC 031653Z AUTO 07008KT 020V110 10SM CLR 32/20 A2999 RMK AO2 SLP146 T03220200
KGAD 031656Z AUTO VRB04KT 10SM FEW033 31/24 A2997 RMK AO2 SLP148 T03110239
KCHA 031653Z 00000KT 10SM SCT050 SCT250 32/22 A2999 RMK AO2 SLP147 T03170217
KCHA 031720Z 0318/0418 VRB03KT P6SM SCT045 SCT250 
     FM040400 00000KT P6SM FEW150 
     FM041700 VRB04KT P6SM VCTS FEW050CB
       
KDNN 031715Z AUTO 00000KT 10SM CLR 31/19 A3000 RMK AO2
KAHN 031651Z 10SM FEW039 33/20 A3000 RMK AO2 SLP149 T03280200
KAHN 031120Z 0312/0412 VRB03KT P6SM SCT100 
     FM031500 08003KT P6SM FEW040 SCT100 
     FM031800 09005KT P6SM VCSH SCT050 SCT120 
     FM040100 00000KT P6SM FEW060 SCT120
       
KLZU 031656Z 09007KT 040V120 10SM SCT042 32/21 A3001 RMK AO2 SLP159 T03170211